createdAt,value
2022-12-22T00:01:21.942Z,3.11
2022-12-22T00:04:08.608Z,3.13
2022-12-22T00:06:54.461Z,3.16
2022-12-22T00:09:41.095Z,3.17
2022-12-22T00:12:27.874Z,3.13
2022-12-22T00:15:16.667Z,3.11
2022-12-22T00:18:03.103Z,3.10
2022-12-22T00:20:49.313Z,3.11
2022-12-22T00:23:34.956Z,2.99
2022-12-22T00:26:21.577Z,2.97
2022-12-22T00:29:08.062Z,2.98
2022-12-22T00:31:55.565Z,2.97
2022-12-22T00:34:42.443Z,2.92
2022-12-22T00:37:31.249Z,2.89
2022-12-22T00:40:17.992Z,3.02
2022-12-22T00:43:04.076Z,3.11
2022-12-22T00:45:50.945Z,3.18
2022-12-22T00:48:44.048Z,3.20
2022-12-22T00:51:30.844Z,3.22
2022-12-22T00:54:17.540Z,3.27
2022-12-22T00:57:03.915Z,3.31
2022-12-22T00:59:51.812Z,3.35
2022-12-22T01:02:37.802Z,3.36
2022-12-22T01:05:26.539Z,3.40
2022-12-22T01:08:13.940Z,3.38
2022-12-22T01:11:00.673Z,3.34
2022-12-22T01:13:46.622Z,3.29
2022-12-22T01:16:33.310Z,3.16
2022-12-22T01:19:20.339Z,3.01
2022-12-22T01:22:09.402Z,2.93
2022-12-22T01:24:56.994Z,2.83
2022-12-22T01:27:43.448Z,2.70
2022-12-22T01:30:30.125Z,2.69
2022-12-22T01:33:17.073Z,2.66
2022-12-22T01:36:03.001Z,2.55
2022-12-22T01:38:51.444Z,2.56
2022-12-22T01:41:39.812Z,2.58
2022-12-22T01:44:33.175Z,2.54
2022-12-22T01:47:51.025Z,2.53
2022-12-22T01:50:50.885Z,2.60
2022-12-22T01:53:39.711Z,2.66
2022-12-22T01:56:27.841Z,2.58
2022-12-22T01:59:16.465Z,2.57
2022-12-22T02:02:03.724Z,2.64
2022-12-22T02:04:52.945Z,2.66
2022-12-22T02:07:51.537Z,2.88
2022-12-22T02:10:54.669Z,2.96
2022-12-22T02:13:49.313Z,2.98
2022-12-22T02:16:45.019Z,2.98
2022-12-22T02:19:48.888Z,2.96
2022-12-22T02:22:42.476Z,2.76
2022-12-22T02:25:35.492Z,2.79
2022-12-22T02:28:24.331Z,2.81
2022-12-22T02:31:11.809Z,2.87
2022-12-22T02:33:57.648Z,2.83
2022-12-22T02:36:56.324Z,2.94
2022-12-22T02:39:54.368Z,2.98
2022-12-22T02:42:52.800Z,2.88
2022-12-22T02:45:52.957Z,2.76
2022-12-22T02:48:44.937Z,2.88
2022-12-22T02:51:36.028Z,3.00
2022-12-22T02:54:24.931Z,3.02
2022-12-22T02:57:10.675Z,2.98
2022-12-22T02:59:57.308Z,3.03
2022-12-22T03:02:44.546Z,3.08
2022-12-22T03:05:30.724Z,3.17
2022-12-22T03:08:17.033Z,3.19
2022-12-22T03:11:03.602Z,3.22
2022-12-22T03:13:49.681Z,3.27
2022-12-22T03:16:36.534Z,3.29
2022-12-22T03:19:23.907Z,3.25
2022-12-22T03:22:10.394Z,3.29
2022-12-22T03:24:56.591Z,3.22
2022-12-22T03:27:25.713Z,3.18
2022-12-22T03:29:54.501Z,3.27
2022-12-22T03:32:22.865Z,3.38
2022-12-22T03:34:53.260Z,3.43
2022-12-22T03:37:21.593Z,3.47
2022-12-22T03:39:50.925Z,3.46
2022-12-22T03:42:37.556Z,3.55
2022-12-22T03:45:24.673Z,3.60
2022-12-22T03:47:53.804Z,3.59
2022-12-22T03:50:23.507Z,3.52
2022-12-22T03:52:52.767Z,3.64
2022-12-22T03:55:21.126Z,3.77
2022-12-22T03:57:50.042Z,3.89
2022-12-22T04:00:18.903Z,4.02
2022-12-22T04:02:48.194Z,4.02
2022-12-22T04:05:16.923Z,4.09
2022-12-22T04:07:47.308Z,4.15
2022-12-22T04:10:33.181Z,4.22
2022-12-22T04:13:02.493Z,4.27
2022-12-22T04:15:33.715Z,4.33
2022-12-22T04:18:03.214Z,4.42
2022-12-22T04:20:31.839Z,4.49
2022-12-22T04:23:02.228Z,4.58
2022-12-22T04:25:31.092Z,4.65
2022-12-22T04:28:00.320Z,4.75
2022-12-22T04:30:29.524Z,4.80
2022-12-22T04:32:58.279Z,4.81
2022-12-22T04:35:26.652Z,4.83
2022-12-22T04:37:56.136Z,4.83
2022-12-22T04:40:25.898Z,4.90
2022-12-22T04:42:54.789Z,4.94
2022-12-22T04:45:23.141Z,4.97
2022-12-22T04:47:52.019Z,5.00
2022-12-22T04:50:20.381Z,5.04
2022-12-22T04:52:49.752Z,5.00
2022-12-22T04:55:18.273Z,5.09
2022-12-22T04:57:48.974Z,5.09
2022-12-22T05:00:18.182Z,5.09
2022-12-22T05:02:46.822Z,5.12
2022-12-22T05:05:15.469Z,5.13
2022-12-22T05:07:44.930Z,5.17
2022-12-22T05:10:14.063Z,5.16
2022-12-22T05:12:57.708Z,5.16
2022-12-22T05:15:30.676Z,5.23
2022-12-22T05:18:00.422Z,5.25
2022-12-22T05:20:30.227Z,5.28
2022-12-22T05:22:58.938Z,5.32
2022-12-22T05:25:34.489Z,5.34
2022-12-22T05:28:04.384Z,5.31
2022-12-22T05:30:34.102Z,5.41
2022-12-22T05:33:03.297Z,5.45
2022-12-22T05:35:31.692Z,5.47
2022-12-22T05:38:01.071Z,5.50
2022-12-22T05:40:29.415Z,5.56
2022-12-22T05:42:58.311Z,5.59
2022-12-22T05:45:27.181Z,5.61
2022-12-22T05:47:56.884Z,5.65
2022-12-22T05:50:26.681Z,5.62
2022-12-22T05:53:06.350Z,5.71
2022-12-22T05:55:35.743Z,5.73
2022-12-22T05:58:04.143Z,5.75
2022-12-22T06:00:33.534Z,5.80
2022-12-22T06:03:03.444Z,5.82
2022-12-22T06:05:31.880Z,5.85
2022-12-22T06:08:00.270Z,5.88
2022-12-22T06:10:28.914Z,5.87
2022-12-22T06:12:57.317Z,5.91
2022-12-22T06:15:25.701Z,5.97
2022-12-22T06:17:54.154Z,6.00
2022-12-22T06:20:24.380Z,5.98
2022-12-22T06:22:52.765Z,6.05
2022-12-22T06:25:21.493Z,6.02
2022-12-22T06:27:50.222Z,6.08
2022-12-22T06:30:19.197Z,6.12
2022-12-22T06:32:47.529Z,6.18
2022-12-22T06:35:16.343Z,6.18
2022-12-22T06:37:46.251Z,6.05
2022-12-22T06:40:15.011Z,6.26
2022-12-22T06:43:08.083Z,6.33
2022-12-22T06:45:39.206Z,6.29
2022-12-22T06:48:09.016Z,6.34
2022-12-22T06:50:37.600Z,6.29
2022-12-22T06:53:08.433Z,6.36
2022-12-22T06:55:37.745Z,6.34
2022-12-22T06:58:06.846Z,6.29
2022-12-22T07:00:35.763Z,6.21
2022-12-22T07:03:04.334Z,6.22
2022-12-22T07:05:34.496Z,6.21
2022-12-22T07:08:08.524Z,6.27
2022-12-22T07:10:57.683Z,6.31
2022-12-22T07:13:28.107Z,6.32
2022-12-22T07:16:00.974Z,6.31
2022-12-22T07:18:32.506Z,6.36
2022-12-22T07:21:02.435Z,6.41
2022-12-22T07:23:31.199Z,6.44
2022-12-22T07:26:01.903Z,6.47
2022-12-22T07:28:30.352Z,6.48
2022-12-22T07:30:59.251Z,6.50
2022-12-22T07:33:27.776Z,6.54
2022-12-22T07:36:04.054Z,6.55
2022-12-22T07:38:34.309Z,6.57
2022-12-22T07:41:25.424Z,6.53
2022-12-22T07:43:53.267Z,6.49
2022-12-22T07:46:22.437Z,6.66
2022-12-22T07:49:08.569Z,6.69
2022-12-22T07:51:39.462Z,6.73
2022-12-22T07:54:09.258Z,6.62
2022-12-22T07:56:39.582Z,6.55
2022-12-22T07:59:08.145Z,6.82
2022-12-22T08:01:37.262Z,6.82
2022-12-22T08:04:05.929Z,6.77
2022-12-22T08:06:35.424Z,6.75
2022-12-22T08:09:05.037Z,6.76
2022-12-22T08:11:34.875Z,6.86
2022-12-22T08:14:05.135Z,6.90
2022-12-22T08:16:33.724Z,6.92
2022-12-22T08:19:02.550Z,6.94
2022-12-22T08:21:30.894Z,6.98
2022-12-22T08:23:59.664Z,7.02
2022-12-22T08:26:33.416Z,7.10
2022-12-22T08:29:08.473Z,7.15
2022-12-22T08:31:37.635Z,7.24
2022-12-22T08:34:08.833Z,7.29
2022-12-22T08:36:43.006Z,7.33
2022-12-22T08:39:11.934Z,7.57
2022-12-22T08:41:53.838Z,7.64
2022-12-22T08:44:24.840Z,7.70
2022-12-22T08:46:55.261Z,8.00
2022-12-22T08:49:24.577Z,8.03
2022-12-22T08:51:53.844Z,8.37
2022-12-22T08:54:23.078Z,8.63
2022-12-22T08:56:51.889Z,8.92
2022-12-22T08:59:20.850Z,9.08
2022-12-22T09:01:51.349Z,9.01
2022-12-22T09:04:21.751Z,9.10
2022-12-22T09:06:52.908Z,9.29
2022-12-22T09:09:22.260Z,9.50
2022-12-22T09:11:51.402Z,9.56
2022-12-22T09:14:20.488Z,9.81
2022-12-22T09:16:50.766Z,9.95
2022-12-22T09:19:20.560Z,10.02
2022-12-22T09:21:48.957Z,9.74
2022-12-22T09:24:18.211Z,9.47
2022-12-22T09:26:46.606Z,9.35
2022-12-22T09:29:16.085Z,9.49
2022-12-22T09:31:44.842Z,9.61
2022-12-22T09:34:18.157Z,9.68
2022-12-22T09:36:47.965Z,9.48
2022-12-22T09:39:19.042Z,9.61
2022-12-22T09:41:51.919Z,9.51
2022-12-22T09:44:25.674Z,9.18
2022-12-22T09:46:55.280Z,9.21
2022-12-22T09:49:26.344Z,9.11
2022-12-22T09:51:58.296Z,9.42
2022-12-22T09:54:28.300Z,9.16
2022-12-22T09:56:57.055Z,9.19
2022-12-22T09:59:28.598Z,9.12
2022-12-22T10:02:07.063Z,9.09
2022-12-22T10:04:53.851Z,9.14
2022-12-22T10:07:30.965Z,9.47
2022-12-22T10:09:59.372Z,9.76
2022-12-22T10:12:28.294Z,10.01
2022-12-22T10:14:57.021Z,9.91
2022-12-22T10:17:28.203Z,9.89
2022-12-22T10:20:09.731Z,9.86
2022-12-22T10:22:48.189Z,9.80
2022-12-22T10:25:35.775Z,9.71
2022-12-22T10:28:21.805Z,9.57
2022-12-22T10:30:50.216Z,9.60
2022-12-22T10:33:20.500Z,9.64
2022-12-22T10:35:53.252Z,9.63
2022-12-22T10:38:28.661Z,9.67
2022-12-22T10:41:02.517Z,9.76
2022-12-22T10:43:34.509Z,9.85
2022-12-22T10:46:04.366Z,9.99
2022-12-22T10:48:37.206Z,9.99
2022-12-22T10:51:09.807Z,9.99
2022-12-22T10:53:48.808Z,9.85
2022-12-22T10:56:22.776Z,9.71
2022-12-22T10:58:53.823Z,9.70
2022-12-22T11:01:29.585Z,9.61
2022-12-22T11:03:59.127Z,9.55
2022-12-22T11:06:29.271Z,9.48
2022-12-22T11:09:23.772Z,9.54
2022-12-22T11:11:52.495Z,9.56
2022-12-22T11:14:31.993Z,9.61
2022-12-22T11:17:04.247Z,9.61
2022-12-22T11:19:57.942Z,9.57
2022-12-22T11:22:39.047Z,9.69
2022-12-22T11:25:24.314Z,9.62
2022-12-22T11:28:08.560Z,9.69
2022-12-22T11:30:52.066Z,9.65
2022-12-22T11:33:33.633Z,9.63
2022-12-22T11:36:06.473Z,9.64
2022-12-22T11:38:47.073Z,9.55
2022-12-22T11:41:30.945Z,9.24
2022-12-22T11:44:15.717Z,9.17
2022-12-22T11:46:53.973Z,9.47
2022-12-22T11:49:47.932Z,9.46
2022-12-22T11:52:29.726Z,9.41
2022-12-22T11:55:25.000Z,9.30
2022-12-22T11:58:05.948Z,9.09
2022-12-22T12:01:12.192Z,8.91
2022-12-22T12:03:55.987Z,8.99
2022-12-22T12:07:01.098Z,8.96
2022-12-22T12:09:41.367Z,8.81
2022-12-22T12:12:18.902Z,8.67
2022-12-22T12:15:00.145Z,8.68
2022-12-22T12:17:40.600Z,8.60
2022-12-22T12:20:22.610Z,7.98
2022-12-22T12:23:07.691Z,8.59
2022-12-22T12:25:43.442Z,8.56
2022-12-22T12:28:25.400Z,8.51
2022-12-22T12:30:57.622Z,8.45
2022-12-22T12:33:37.656Z,8.48
2022-12-22T12:36:15.550Z,8.55
2022-12-22T12:39:10.606Z,8.61
2022-12-22T12:41:49.516Z,8.53
2022-12-22T12:44:24.643Z,8.58
2022-12-22T12:47:04.736Z,8.51
2022-12-22T12:50:07.941Z,8.69
2022-12-22T12:53:18.680Z,8.94
2022-12-22T12:55:57.622Z,9.01
2022-12-22T12:58:57.976Z,8.94
2022-12-22T13:02:01.729Z,8.86
2022-12-22T13:05:16.024Z,8.80
2022-12-22T13:08:21.140Z,8.78
2022-12-22T13:14:57.957Z,8.73
2022-12-22T13:17:43.565Z,8.67
2022-12-22T13:20:16.812Z,8.66
2022-12-22T13:22:46.617Z,8.60
2022-12-22T13:25:17.220Z,8.68
2022-12-22T13:27:46.174Z,8.55
2022-12-22T13:30:18.804Z,8.68
2022-12-22T13:32:51.395Z,8.65
2022-12-22T13:35:32.734Z,7.98
2022-12-22T13:38:03.581Z,8.62
2022-12-22T13:40:40.515Z,8.61
2022-12-22T13:43:14.525Z,8.64
2022-12-22T13:45:46.103Z,8.41
2022-12-22T13:48:20.026Z,8.52
2022-12-22T13:50:51.205Z,8.66
2022-12-22T13:54:06.463Z,8.65
2022-12-22T13:56:19.308Z,8.66
2022-12-22T13:58:52.621Z,8.69
2022-12-22T14:01:21.762Z,8.67
2022-12-22T14:04:02.359Z,8.49
2022-12-22T14:06:33.490Z,8.58
2022-12-22T14:09:13.621Z,8.54
2022-12-22T14:11:50.688Z,8.68
2022-12-22T14:14:23.921Z,8.64
2022-12-22T14:16:54.855Z,8.79
2022-12-22T14:19:26.419Z,8.71
2022-12-22T14:22:03.760Z,8.84
2022-12-22T14:24:38.563Z,8.72
2022-12-22T14:27:08.281Z,8.89
2022-12-22T14:29:37.355Z,8.91
2022-12-22T14:32:06.691Z,8.95
2022-12-22T14:34:36.948Z,8.89
2022-12-22T14:37:06.265Z,8.95
2022-12-22T14:39:34.774Z,8.98
2022-12-22T14:42:06.090Z,9.00
2022-12-22T14:44:37.923Z,9.04
2022-12-22T14:47:16.255Z,8.99
2022-12-22T14:49:48.743Z,9.01
2022-12-22T14:52:23.797Z,8.94
2022-12-22T14:54:55.644Z,9.04
2022-12-22T14:57:33.323Z,9.08
2022-12-22T15:00:04.095Z,9.10
2022-12-22T15:02:39.470Z,9.09
2022-12-22T15:05:17.394Z,9.09
2022-12-22T15:08:06.714Z,9.15
2022-12-22T15:10:41.003Z,9.16
2022-12-22T15:13:17.396Z,9.18
2022-12-22T15:15:46.039Z,9.18
2022-12-22T15:18:16.305Z,9.18
2022-12-22T15:20:46.991Z,9.22
2022-12-22T15:23:17.391Z,9.17
2022-12-22T15:25:46.725Z,9.29
2022-12-22T15:28:15.593Z,9.29
2022-12-22T15:30:44.315Z,9.14
2022-12-22T15:33:14.905Z,9.17
2022-12-22T15:35:43.783Z,9.28
2022-12-22T15:38:17.008Z,9.29
2022-12-22T15:40:45.743Z,9.34
2022-12-22T15:43:55.550Z,9.20
2022-12-22T15:46:07.596Z,9.39
2022-12-22T15:48:40.071Z,9.37
2022-12-22T15:51:15.405Z,9.32
2022-12-22T15:53:45.695Z,9.36
2022-12-22T15:56:19.542Z,9.24
2022-12-22T15:58:48.754Z,9.41
2022-12-22T16:01:17.973Z,9.39
2022-12-22T16:03:46.543Z,9.42
2022-12-22T16:06:17.540Z,9.47
2022-12-22T16:08:50.435Z,9.58
2022-12-22T16:11:20.037Z,9.65
2022-12-22T16:13:49.566Z,9.65
2022-12-22T16:16:18.372Z,9.70
2022-12-22T16:18:46.759Z,9.74
2022-12-22T16:21:18.156Z,9.75
2022-12-22T16:23:50.228Z,9.75
2022-12-22T16:26:21.987Z,9.78
2022-12-22T16:28:51.112Z,9.80
2022-12-22T16:31:23.371Z,9.81
2022-12-22T16:33:53.263Z,9.71
2022-12-22T16:36:22.055Z,9.57
2022-12-22T16:38:51.824Z,9.72
2022-12-22T16:41:24.759Z,9.77
2022-12-22T16:46:42.194Z,9.61
2022-12-22T16:49:11.390Z,9.71
2022-12-22T16:51:47.125Z,9.72
2022-12-22T16:54:17.754Z,9.62
2022-12-22T16:56:47.021Z,9.71
2022-12-22T16:59:17.171Z,9.68
2022-12-22T17:01:49.298Z,9.71
2022-12-22T17:04:21.091Z,9.72
2022-12-22T17:06:50.798Z,9.73
2022-12-22T17:09:25.105Z,9.66
2022-12-22T17:11:55.108Z,9.73
2022-12-22T17:14:30.895Z,9.74
2022-12-22T17:16:59.804Z,9.73
2022-12-22T17:19:28.220Z,9.79
2022-12-22T17:21:59.358Z,9.74
2022-12-22T17:24:29.818Z,9.78
2022-12-22T17:27:02.060Z,9.73
2022-12-22T17:29:30.709Z,9.68
2022-12-22T17:31:59.087Z,9.28
2022-12-22T17:34:28.095Z,9.52
2022-12-22T17:36:58.877Z,9.56
2022-12-22T17:39:27.563Z,9.44
2022-12-22T17:41:57.755Z,9.50
2022-12-22T17:44:28.451Z,9.42
2022-12-22T17:46:57.159Z,9.25
2022-12-22T17:49:25.811Z,9.24
2022-12-22T17:51:54.627Z,9.30
2022-12-22T17:54:26.651Z,8.76
2022-12-22T17:57:00.069Z,9.28
2022-12-22T17:59:29.194Z,9.14
2022-12-22T18:01:58.374Z,9.23
2022-12-22T18:04:27.274Z,9.27
2022-12-22T18:06:56.006Z,9.27
2022-12-22T18:09:27.369Z,9.25
2022-12-22T18:11:57.153Z,9.30
2022-12-22T18:14:26.138Z,9.22
2022-12-22T18:16:54.985Z,9.17
2022-12-22T18:19:23.353Z,8.62
2022-12-22T18:21:51.922Z,9.20
2022-12-22T18:24:20.825Z,9.23
2022-12-22T18:26:49.349Z,9.12
2022-12-22T18:29:20.389Z,9.24
2022-12-22T18:31:48.942Z,9.18
2022-12-22T18:34:17.443Z,9.19
2022-12-22T18:36:48.312Z,9.15
2022-12-22T18:39:20.263Z,9.22
2022-12-22T18:41:49.872Z,9.22
2022-12-22T18:44:20.289Z,9.01
2022-12-22T18:46:50.092Z,8.98
2022-12-22T18:49:18.893Z,9.02
2022-12-22T18:51:47.803Z,9.03
2022-12-22T18:54:23.852Z,9.11
2022-12-22T18:56:52.606Z,9.28
2022-12-22T18:59:26.394Z,9.27
2022-12-22T19:02:00.085Z,9.17
2022-12-22T19:04:29.092Z,9.25
2022-12-22T19:06:58.075Z,9.19
2022-12-22T19:09:27.049Z,9.22
2022-12-22T19:11:56.044Z,9.30
2022-12-22T19:14:26.112Z,9.24
2022-12-22T19:16:56.279Z,9.30
2022-12-22T19:19:25.115Z,9.30
2022-12-22T19:21:54.202Z,9.32
2022-12-22T19:24:23.553Z,9.24
2022-12-22T19:26:52.340Z,9.32
2022-12-22T19:29:21.446Z,9.31
2022-12-22T19:31:51.825Z,9.35
2022-12-22T19:34:22.008Z,9.37
2022-12-22T19:36:51.753Z,9.36
2022-12-22T19:39:20.117Z,9.39
2022-12-22T19:41:51.860Z,9.40
2022-12-22T19:44:24.247Z,9.38
2022-12-22T19:46:55.179Z,9.22
2022-12-22T19:49:26.981Z,9.32
2022-12-22T19:51:56.234Z,9.30
2022-12-22T19:54:25.710Z,9.18
2022-12-22T19:56:56.366Z,9.24
2022-12-22T19:59:38.725Z,9.28
2022-12-22T20:02:25.226Z,9.26
2022-12-22T20:04:55.391Z,9.28
2022-12-22T20:07:26.586Z,9.23
2022-12-22T20:09:55.584Z,9.22
2022-12-22T20:12:27.256Z,9.18
2022-12-22T20:14:56.176Z,9.15
2022-12-22T20:17:26.222Z,9.01
2022-12-22T20:19:54.632Z,9.11
2022-12-22T20:22:24.724Z,9.07
2022-12-22T20:24:54.529Z,8.88
2022-12-22T20:27:26.587Z,9.03
2022-12-22T20:29:55.317Z,9.01
2022-12-22T20:32:27.948Z,8.96
2022-12-22T20:34:56.719Z,8.95
2022-12-22T20:37:26.262Z,8.95
2022-12-22T20:39:54.680Z,8.79
2022-12-22T20:42:26.230Z,8.81
2022-12-22T20:45:02.421Z,8.81
2022-12-22T20:47:34.275Z,8.73
2022-12-22T20:50:03.189Z,8.72
2022-12-22T20:52:33.724Z,8.68
2022-12-22T20:55:02.579Z,8.66
2022-12-22T20:57:31.351Z,8.61
2022-12-22T20:59:59.975Z,8.62
2022-12-22T21:02:28.965Z,8.63
2022-12-22T21:04:59.039Z,8.65
2022-12-22T21:07:27.383Z,8.65
2022-12-22T21:09:56.116Z,8.63
2022-12-22T21:12:24.505Z,8.66
2022-12-22T21:14:53.523Z,8.39
2022-12-22T21:17:22.414Z,8.57
2022-12-22T21:19:50.826Z,8.51
2022-12-22T21:22:21.654Z,8.61
2022-12-22T21:24:49.990Z,8.61
2022-12-22T21:27:21.991Z,8.63
2022-12-22T21:29:50.371Z,8.62
2022-12-22T21:32:18.739Z,8.65
2022-12-22T21:34:47.503Z,8.65
2022-12-22T21:37:18.629Z,8.59
2022-12-22T21:39:48.891Z,8.57
2022-12-22T21:42:18.345Z,8.56
2022-12-22T21:44:47.194Z,8.55
2022-12-22T21:47:18.568Z,8.50
2022-12-22T21:49:47.948Z,8.57
2022-12-22T21:52:17.050Z,8.61
2022-12-22T21:54:45.526Z,8.60
2022-12-22T21:57:16.492Z,8.65
2022-12-22T21:59:44.909Z,8.64
2022-12-22T22:02:17.222Z,8.56
2022-12-22T22:04:52.073Z,8.68
2022-12-22T22:07:22.803Z,8.68
2022-12-22T22:09:51.651Z,8.69
2022-12-22T22:12:33.446Z,8.69
2022-12-22T22:15:02.267Z,8.69
2022-12-22T22:17:31.288Z,8.67
2022-12-22T22:19:59.997Z,8.60
2022-12-22T22:22:29.023Z,8.69
2022-12-22T22:24:57.603Z,8.70
2022-12-22T22:27:27.543Z,8.70
2022-12-22T22:29:56.398Z,8.62
2022-12-22T22:32:24.971Z,8.49
2022-12-22T22:34:54.011Z,8.68
2022-12-22T22:37:22.419Z,8.65
2022-12-22T22:39:51.237Z,8.65
2022-12-22T22:42:19.580Z,8.68
2022-12-22T22:44:49.659Z,8.70
2022-12-22T22:47:18.332Z,8.62
2022-12-22T22:49:46.671Z,8.71
2022-12-22T22:52:15.677Z,8.68
2022-12-22T22:54:44.024Z,8.74
2022-12-22T22:57:12.394Z,8.75
2022-12-22T22:59:40.848Z,8.71
2022-12-22T23:02:11.250Z,8.76
2022-12-22T23:04:40.123Z,8.76
2022-12-22T23:07:08.599Z,8.78
2022-12-22T23:09:37.290Z,8.81
2022-12-22T23:12:06.645Z,8.81
2022-12-22T23:14:35.151Z,8.84
2022-12-22T23:17:04.241Z,8.80
2022-12-22T23:19:34.363Z,8.80
2022-12-22T23:22:05.739Z,8.87
2022-12-22T23:24:35.620Z,8.81
2022-12-22T23:27:04.185Z,8.81
2022-12-22T23:29:32.725Z,8.84
2022-12-22T23:32:02.179Z,8.88
2022-12-22T23:34:30.632Z,8.88
2022-12-22T23:37:01.172Z,8.86
2022-12-22T23:39:30.084Z,8.82
2022-12-22T23:41:58.446Z,8.80
2022-12-22T23:44:26.974Z,8.76
2022-12-22T23:46:55.459Z,8.81
2022-12-22T23:49:24.548Z,8.75
2022-12-22T23:51:52.910Z,8.77
2022-12-22T23:54:23.711Z,8.78
2022-12-22T23:56:52.155Z,8.74
2022-12-22T23:59:20.651Z,8.66
